Time;durP1;ratioP1;P1;durP2;ratioP2;P2;SDS_P1;SDS_P2;PMS_P1;PMS_P2;Temp;Humidity;BMP_temperature;BMP_pressure;BME280_temperature;BME280_humidity;BME280_pressure;Samples;Min_cycle;Max_cycle;Signal;HPM_P1;HPM_P2
2022/09/27 00:02:04;;;;;;;10.98;2.33;;;;;;;;;;4965075;28;20142;-74
2022/09/27 00:04:30;;;;;;;12.43;2.17;;;;;;;;;;4979007;28;20149;-72
2022/09/27 00:06:56;;;;;;;15.95;2.85;;;;;;;;;;4978291;28;20514;-73
2022/09/27 00:09:22;;;;;;;9.27;1.42;;;;;;;;;;4981305;28;20026;-72
2022/09/27 00:11:48;;;;;;;13.20;1.80;;;;;;;;;;4967725;28;20117;-72
2022/09/27 00:14:16;;;;;;;11.02;1.67;;;;;;;;;;4968113;28;20077;-74
2022/09/27 00:16:43;;;;;;;11.70;1.85;;;;;;;;;;4965896;28;20034;-72
2022/09/27 00:19:17;;;;;;;7.85;1.40;;;;;;;;;;4968049;28;20062;-72
2022/09/27 00:21:43;;;;;;;12.82;1.70;;;;;;;;;;4961270;28;20046;-72
2022/09/27 00:24:18;;;;;;;11.65;1.73;;;;;;;;;;4964761;28;20030;-72
2022/09/27 00:26:45;;;;;;;14.77;1.75;;;;;;;;;;4966076;28;20035;-72
2022/09/27 00:29:11;;;;;;;10.02;2.08;;;;;;;;;;4968722;28;20038;-72
2022/09/27 00:31:37;;;;;;;7.68;1.40;;;;;;;;;;4964962;28;20054;-72
2022/09/27 00:34:04;;;;;;;11.48;1.42;;;;;;;;;;4966037;28;20023;-71
2022/09/27 00:36:31;;;;;;;18.20;2.10;;;;;;;;;;4964067;28;20069;-72
2022/09/27 00:38:58;;;;;;;12.90;1.98;;;;;;;;;;4968197;28;20026;-72
2022/09/27 00:41:29;;;;;;;11.38;1.40;;;;;;;;;;4963305;28;20027;-72
2022/09/27 00:43:57;;;;;;;13.35;1.92;;;;;;;;;;4982438;28;20406;-72
2022/09/27 00:46:29;;;;;;;17.67;2.00;;;;;;;;;;4965168;28;20163;-72
2022/09/27 00:49:08;;;;;;;12.98;1.70;;;;;;;;;;4963323;28;20057;-72
2022/09/27 00:51:37;;;;;;;10.13;1.70;;;;;;;;;;4974187;28;20050;-72
2022/09/27 00:54:04;;;;;;;17.90;2.20;;;;;;;;;;4969448;28;20023;-72
2022/09/27 00:56:31;;;;;;;9.85;1.88;;;;;;;;;;4965788;28;20062;-73
2022/09/27 00:59:01;;;;;;;14.70;2.40;;;;;;;;;;4967031;28;20035;-73
2022/09/27 01:01:29;;;;;;;17.20;2.30;;;;;;;;;;4965876;28;20106;-73
2022/09/27 01:04:05;;;;;;;12.48;1.90;;;;;;;;;;4973959;28;20039;-72
2022/09/27 01:06:31;;;;;;;11.23;1.98;;;;;;;;;;4962889;28;20062;-72
2022/09/27 01:08:58;;;;;;;7.55;1.95;;;;;;;;;;4980474;28;20047;-72
2022/09/27 01:11:24;;;;;;;9.93;2.45;;;;;;;;;;4962256;28;20106;-73
2022/09/27 01:14:05;;;;;;;11.32;1.98;;;;;;;;;;4967418;28;20038;-72
2022/09/27 01:16:31;;;;;;;;;;;;;;;;;;4963218;28;20089;-72
2022/09/27 01:19:17;;;;;;;11.13;2.20;;;;;;;;;;4967790;28;20304;-72
2022/09/27 01:21:46;;;;;;;11.88;2.15;;;;;;;;;;4977468;28;20455;-73
2022/09/27 01:24:36;;;;;;;14.75;2.17;;;;;;;;;;4966925;28;20101;-73
2022/09/27 01:27:02;;;;;;;10.40;2.05;;;;;;;;;;4979307;28;20463;-72
2022/09/27 01:29:28;;;;;;;11.95;2.75;;;;;;;;;;4968229;28;20030;-73
2022/09/27 01:32:01;;;;;;;9.60;1.70;;;;;;;;;;4963540;28;20039;-72
2022/09/27 01:34:47;;;;;;;16.17;2.95;;;;;;;;;;4963351;28;20527;-72
2022/09/27 01:37:16;;;;;;;16.70;2.72;;;;;;;;;;4963662;28;20070;-73
2022/09/27 01:39:43;;;;;;;16.73;2.60;;;;;;;;;;4965399;28;20066;-73
2022/09/27 01:42:22;;;;;;;10.57;2.38;;;;;;;;;;4966608;28;20035;-73
2022/09/27 01:44:58;;;;;;;14.65;3.03;;;;;;;;;;4970589;28;20039;-72
2022/09/27 01:47:28;;;;;;;15.15;2.75;;;;;;;;;;4967564;28;20038;-73
2022/09/27 01:50:01;;;;;;;17.10;2.50;;;;;;;;;;4964665;28;20053;-73
2022/09/27 01:52:30;;;;;;;16.90;2.35;;;;;;;;;;4964498;28;20101;-73
2022/09/27 01:54:58;;;;;;;15.68;2.60;;;;;;;;;;4966052;28;20054;-73
2022/09/27 01:57:25;;;;;;;20.65;2.47;;;;;;;;;;4966287;28;20019;-73
2022/09/27 02:00:11;;;;;;;17.98;2.30;;;;;;;;;;4964577;28;20036;-73
2022/09/27 02:02:43;;;;;;;15.18;2.83;;;;;;;;;;4959498;28;20057;-73
2022/09/27 02:05:12;;;;;;;18.85;2.90;;;;;;;;;;4966393;28;20398;-73
2022/09/27 02:07:43;;;;;;;14.00;2.75;;;;;;;;;;4967208;28;20092;-73
2022/09/27 02:10:15;;;;;;;13.02;2.42;;;;;;;;;;4962595;28;20034;-73
2022/09/27 02:12:47;;;;;;;22.50;2.38;;;;;;;;;;4964406;28;20043;-73
2022/09/27 02:15:14;;;;;;;29.65;3.35;;;;;;;;;;4965853;28;20039;-73
2022/09/27 02:17:46;;;;;;;24.00;4.25;;;;;;;;;;4960712;28;20038;-72
2022/09/27 02:20:19;;;;;;;17.70;2.90;;;;;;;;;;4966447;28;20060;-73
2022/09/27 02:22:49;;;;;;;28.08;2.90;;;;;;;;;;4964422;28;20090;-73
2022/09/27 02:25:28;;;;;;;20.23;3.58;;;;;;;;;;4965979;28;20300;-73
2022/09/27 02:27:57;;;;;;;26.00;3.78;;;;;;;;;;4974841;28;20030;-73
2022/09/27 02:30:23;;;;;;;21.77;3.83;;;;;;;;;;4965315;28;20027;-72
2022/09/27 02:32:49;;;;;;;19.52;2.55;;;;;;;;;;4964652;28;20569;-73
2022/09/27 02:35:18;;;;;;;22.50;4.32;;;;;;;;;;4965623;28;20045;-73
2022/09/27 02:37:44;;;;;;;16.80;2.70;;;;;;;;;;4965447;28;20034;-73
2022/09/27 02:40:11;;;;;;;16.00;2.90;;;;;;;;;;4976708;28;20041;-73
2022/09/27 02:42:37;;;;;;;16.80;3.00;;;;;;;;;;4974826;28;20086;-73
2022/09/27 02:45:05;;;;;;;22.23;3.45;;;;;;;;;;4965598;28;20034;-73
2022/09/27 02:47:49;;;;;;;25.42;3.40;;;;;;;;;;4975495;28;20035;-73
2022/09/27 02:50:37;;;;;;;17.23;3.38;;;;;;;;;;4966579;28;20050;-73
2022/09/27 02:53:10;;;;;;;21.52;3.83;;;;;;;;;;4967529;28;20031;-73
2022/09/27 02:55:39;;;;;;;27.08;3.05;;;;;;;;;;4963934;28;20100;-76
2022/09/27 02:58:08;;;;;;;19.92;3.30;;;;;;;;;;4966001;28;20035;-73
2022/09/27 03:00:41;;;;;;;19.95;3.70;;;;;;;;;;4965554;28;20118;-73
2022/09/27 03:03:09;;;;;;;22.67;3.10;;;;;;;;;;4967846;28;20093;-74
2022/09/27 03:05:41;;;;;;;39.13;5.05;;;;;;;;;;4969075;28;20035;-74
2022/09/27 03:08:08;;;;;;;20.38;3.60;;;;;;;;;;4969384;28;20113;-75
2022/09/27 03:10:34;;;;;;;26.90;3.95;;;;;;;;;;4966409;28;20030;-76
2022/09/27 03:13:00;;;;;;;19.55;3.17;;;;;;;;;;4967818;28;20049;-72
2022/09/27 03:15:26;;;;;;;23.05;3.58;;;;;;;;;;4976493;28;20042;-72
2022/09/27 03:17:52;;;;;;;21.98;3.22;;;;;;;;;;4966118;28;20492;-72
2022/09/27 03:20:18;;;;;;;23.98;3.80;;;;;;;;;;4970161;28;21031;-71
2022/09/27 03:22:45;;;;;;;27.83;3.15;;;;;;;;;;4962270;28;20130;-72
2022/09/27 03:25:11;;;;;;;31.60;4.63;;;;;;;;;;4970170;28;20031;-81
2022/09/27 03:27:37;;;;;;;23.02;3.88;;;;;;;;;;4967469;28;20054;-76
2022/09/27 03:30:05;;;;;;;23.75;2.97;;;;;;;;;;4968298;28;20038;-74
2022/09/27 03:32:31;;;;;;;22.63;3.42;;;;;;;;;;4966938;28;20057;-73
2022/09/27 03:34:57;;;;;;;21.05;2.78;;;;;;;;;;4966434;28;20038;-72
2022/09/27 03:37:23;;;;;;;25.58;2.92;;;;;;;;;;4965878;28;20035;-72
2022/09/27 03:39:49;;;;;;;30.48;3.00;;;;;;;;;;4969485;28;20493;-73
2022/09/27 03:42:15;;;;;;;22.13;3.53;;;;;;;;;;4965190;28;20030;-72
2022/09/27 03:44:41;;;;;;;25.33;3.33;;;;;;;;;;4967463;28;20364;-74
2022/09/27 03:47:07;;;;;;;22.30;4.13;;;;;;;;;;4967202;28;20031;-77
2022/09/27 03:49:34;;;;;;;28.67;2.70;;;;;;;;;;4969263;28;20038;-74
2022/09/27 03:52:00;;;;;;;32.08;2.80;;;;;;;;;;4967838;28;20037;-73
2022/09/27 03:54:26;;;;;;;18.50;2.72;;;;;;;;;;4983483;28;20142;-73
2022/09/27 03:56:52;;;;;;;18.88;2.67;;;;;;;;;;4983040;28;20118;-75
2022/09/27 03:59:18;;;;;;;19.30;2.58;;;;;;;;;;4969592;28;20488;-73
2022/09/27 04:01:44;;;;;;;23.02;3.75;;;;;;;;;;4964907;28;20484;-74
2022/09/27 04:04:10;;;;;;;22.30;2.72;;;;;;;;;;4980152;28;20037;-76
2022/09/27 04:06:36;;;;;;;22.60;3.63;;;;;;;;;;4964257;28;20121;-74
2022/09/27 04:09:03;;;;;;;24.15;3.50;;;;;;;;;;4981235;28;20041;-73
2022/09/27 04:11:29;;;;;;;29.05;3.20;;;;;;;;;;4964711;28;20329;-72
2022/09/27 04:13:55;;;;;;;18.65;3.10;;;;;;;;;;4968151;28;20050;-73
2022/09/27 04:16:21;;;;;;;19.35;2.63;;;;;;;;;;4969546;28;20038;-73
2022/09/27 04:18:47;;;;;;;20.65;3.78;;;;;;;;;;4966829;28;20031;-73
2022/09/27 04:21:13;;;;;;;20.80;2.70;;;;;;;;;;4965073;28;20603;-73
2022/09/27 04:23:39;;;;;;;21.42;2.35;;;;;;;;;;4962488;28;20039;-73
2022/09/27 04:26:06;;;;;;;19.48;3.17;;;;;;;;;;4979094;28;20081;-73
2022/09/27 04:28:32;;;;;;;13.13;2.33;;;;;;;;;;4980045;28;20126;-72
2022/09/27 04:30:58;;;;;;;14.05;2.30;;;;;;;;;;4966715;28;20129;-72
2022/09/27 04:33:24;;;;;;;23.70;3.03;;;;;;;;;;4978523;28;20112;-72
2022/09/27 04:38:35;;;;;;;16.50;2.20;;;;;;;;;;4967484;28;20623;-74
2022/09/27 04:41:01;;;;;;;17.55;2.47;;;;;;;;;;4981456;28;20047;-73
2022/09/27 04:43:27;;;;;;;14.98;2.95;;;;;;;;;;4966062;28;20141;-73
2022/09/27 04:45:54;;;;;;;15.15;2.05;;;;;;;;;;4961754;28;20121;-73
2022/09/27 04:48:20;;;;;;;18.60;2.58;;;;;;;;;;4963491;28;20038;-73
2022/09/27 04:50:46;;;;;;;20.77;2.80;;;;;;;;;;4965736;28;20089;-73
2022/09/27 04:53:15;;;;;;;18.55;2.25;;;;;;;;;;4964501;28;20061;-73
2022/09/27 04:55:46;;;;;;;15.05;2.15;;;;;;;;;;4965819;28;20023;-73
2022/09/27 04:58:12;;;;;;;;;;;;;;;;;;4961068;28;20968;-73
2022/09/27 05:00:38;;;;;;;10.18;2.20;;;;;;;;;;4963048;28;19910;-72
2022/09/27 05:03:04;;;;;;;18.20;2.92;;;;;;;;;;4961373;28;20039;-72
2022/09/27 05:05:30;;;;;;;18.17;3.47;;;;;;;;;;4978918;28;20085;-72
2022/09/27 05:07:56;;;;;;;19.05;2.42;;;;;;;;;;4963024;28;20043;-72
2022/09/27 05:10:22;;;;;;;21.02;2.83;;;;;;;;;;4992664;28;20041;-72
2022/09/27 05:12:48;;;;;;;17.67;2.15;;;;;;;;;;4964161;28;20058;-72
2022/09/27 05:15:14;;;;;;;17.13;2.42;;;;;;;;;;4964734;28;20484;-72
2022/09/27 05:17:40;;;;;;;12.13;2.33;;;;;;;;;;4964273;28;20027;-72
2022/09/27 05:20:08;;;;;;;17.10;3.00;;;;;;;;;;4961925;28;20065;-72
2022/09/27 05:22:34;;;;;;;12.30;2.53;;;;;;;;;;4959629;28;20139;-72
2022/09/27 05:25:00;;;;;;;18.23;2.30;;;;;;;;;;4964241;28;20050;-71
2022/09/27 05:27:26;;;;;;;24.73;3.70;;;;;;;;;;4964985;28;20102;-72
2022/09/27 05:29:53;;;;;;;17.58;2.47;;;;;;;;;;4958042;28;20038;-72
2022/09/27 05:32:20;;;;;;;34.13;4.00;;;;;;;;;;4976195;28;20031;-72
2022/09/27 05:34:46;;;;;;;24.27;2.70;;;;;;;;;;4969996;28;20035;-71
2022/09/27 05:37:13;;;;;;;20.95;3.40;;;;;;;;;;4976205;28;20054;-71
2022/09/27 05:39:39;;;;;;;15.05;3.10;;;;;;;;;;4962012;28;20522;-71
2022/09/27 05:42:07;;;;;;;20.80;3.08;;;;;;;;;;4960670;28;20033;-71
2022/09/27 05:44:34;;;;;;;15.82;2.50;;;;;;;;;;4964788;28;20117;-73
2022/09/27 05:47:03;;;;;;;17.63;3.30;;;;;;;;;;4959571;28;20504;-73
2022/09/27 05:49:29;;;;;;;17.55;3.08;;;;;;;;;;4962316;28;20090;-73
2022/09/27 05:51:55;;;;;;;23.92;3.85;;;;;;;;;;4972907;28;20050;-74
2022/09/27 05:54:21;;;;;;;16.80;2.72;;;;;;;;;;4962697;28;20034;-72
2022/09/27 05:56:47;;;;;;;20.00;3.00;;;;;;;;;;4960853;28;20027;-72
2022/09/27 05:59:13;;;;;;;13.88;3.40;;;;;;;;;;4959453;28;20033;-74
2022/09/27 06:01:40;;;;;;;24.27;2.60;;;;;;;;;;4963906;28;20027;-72
2022/09/27 06:04:06;;;;;;;15.30;2.72;;;;;;;;;;4966067;28;20129;-73
2022/09/27 06:06:35;;;;;;;10.23;1.65;;;;;;;;;;4971587;28;20030;-73
2022/09/27 06:09:01;;;;;;;25.95;2.88;;;;;;;;;;4965342;28;20532;-72
2022/09/27 06:11:27;;;;;;;14.05;2.05;;;;;;;;;;4967594;28;20045;-73
2022/09/27 06:13:53;;;;;;;14.77;2.28;;;;;;;;;;4967538;28;20069;-73
2022/09/27 06:16:19;;;;;;;26.52;3.00;;;;;;;;;;4973156;28;20111;-73
2022/09/27 06:18:45;;;;;;;23.58;2.55;;;;;;;;;;4966461;28;20050;-72
2022/09/27 06:21:12;;;;;;;18.50;3.60;;;;;;;;;;4963256;28;20049;-72
2022/09/27 06:23:38;;;;;;;14.25;2.78;;;;;;;;;;4981839;28;20519;-72
2022/09/27 06:26:06;;;;;;;21.02;2.45;;;;;;;;;;4977451;28;20031;-72
2022/09/27 06:28:35;;;;;;;15.18;2.50;;;;;;;;;;4979433;28;20512;-72
2022/09/27 06:31:01;;;;;;;14.02;2.47;;;;;;;;;;4961018;28;20053;-72
2022/09/27 06:33:28;;;;;;;15.02;2.80;;;;;;;;;;4977034;28;20035;-74
2022/09/27 06:35:54;;;;;;;19.58;3.05;;;;;;;;;;4970277;28;20043;-72
2022/09/27 06:38:20;;;;;;;19.90;2.72;;;;;;;;;;4967073;28;20019;-72
2022/09/27 06:40:46;;;;;;;15.82;3.33;;;;;;;;;;4966081;28;20054;-72
2022/09/27 06:43:19;;;;;;;15.98;2.83;;;;;;;;;;4968272;28;20109;-75
2022/09/27 06:45:45;;;;;;;13.20;2.92;;;;;;;;;;4966466;28;20110;-73
2022/09/27 06:48:12;;;;;;;21.02;2.60;;;;;;;;;;4965310;28;20037;-72
2022/09/27 06:50:40;;;;;;;22.60;3.38;;;;;;;;;;4986084;28;20194;-72
2022/09/27 06:53:07;;;;;;;13.15;2.42;;;;;;;;;;4972128;28;20554;-72
2022/09/27 06:55:33;;;;;;;16.58;3.95;;;;;;;;;;4964542;28;20081;-72
2022/09/27 07:00:48;;;;;;;15.98;3.30;;;;;;;;;;4965988;28;20037;-72
2022/09/27 07:03:14;;;;;;;16.30;3.05;;;;;;;;;;4965941;28;20086;-73
2022/09/27 07:05:41;;;;;;;11.95;3.45;;;;;;;;;;4980289;28;20034;-72
2022/09/27 07:08:10;;;;;;;15.55;3.50;;;;;;;;;;4971944;28;20043;-72
2022/09/27 07:10:37;;;;;;;24.20;3.08;;;;;;;;;;4985437;28;20611;-72
2022/09/27 07:13:07;;;;;;;16.83;3.15;;;;;;;;;;4985870;28;20101;-72
2022/09/27 07:15:36;;;;;;;19.57;3.30;;;;;;;;;;4972190;28;20141;-72
2022/09/27 07:18:03;;;;;;;15.25;3.20;;;;;;;;;;4969549;28;20317;-73
2022/09/27 07:20:30;;;;;;;13.13;3.15;;;;;;;;;;4968328;28;20042;-72
2022/09/27 07:22:56;;;;;;;22.58;3.60;;;;;;;;;;4968131;28;20039;-72
2022/09/27 07:25:22;;;;;;;14.90;3.15;;;;;;;;;;4978672;28;20038;-72
2022/09/27 07:27:48;;;;;;;11.65;2.78;;;;;;;;;;4982396;28;20026;-72
2022/09/27 07:30:15;;;;;;;11.75;2.85;;;;;;;;;;4986263;28;20041;-72
2022/09/27 07:32:42;;;;;;;14.60;2.60;;;;;;;;;;4967336;28;20117;-73
2022/09/27 07:35:09;;;;;;;22.63;3.65;;;;;;;;;;4959733;28;20122;-72
2022/09/27 07:37:36;;;;;;;13.40;2.90;;;;;;;;;;4968553;28;20057;-72
2022/09/27 07:40:03;;;;;;;15.13;2.90;;;;;;;;;;5001493;28;20159;-71
2022/09/27 07:42:29;;;;;;;9.80;2.67;;;;;;;;;;4979440;28;20050;-71
2022/09/27 07:44:56;;;;;;;11.80;2.60;;;;;;;;;;4975764;28;20121;-71
2022/09/27 07:47:23;;;;;;;17.10;2.85;;;;;;;;;;4967887;28;20092;-72
2022/09/27 07:49:52;;;;;;;15.38;2.50;;;;;;;;;;4980114;28;20166;-72
2022/09/27 07:52:19;;;;;;;9.25;2.42;;;;;;;;;;4975428;28;20082;-71
2022/09/27 07:54:46;;;;;;;17.25;2.95;;;;;;;;;;4967943;28;20054;-72
2022/09/27 07:57:12;;;;;;;14.68;2.08;;;;;;;;;;4972745;28;20122;-72
2022/09/27 07:59:39;;;;;;;15.27;2.78;;;;;;;;;;4976220;28;20094;-72
2022/09/27 08:02:05;;;;;;;11.55;2.58;;;;;;;;;;4963636;28;20027;-72
2022/09/27 08:04:31;;;;;;;18.60;2.90;;;;;;;;;;4986399;28;20939;-71
2022/09/27 08:06:57;;;;;;;19.33;2.83;;;;;;;;;;4984340;28;20093;-72
2022/09/27 08:09:25;;;;;;;18.13;3.17;;;;;;;;;;4980744;28;20022;-72
2022/09/27 08:11:51;;;;;;;16.15;2.70;;;;;;;;;;4963979;28;20023;-72
2022/09/27 08:14:17;;;;;;;11.35;2.72;;;;;;;;;;4982882;28;20093;-72
2022/09/27 08:16:43;;;;;;;18.30;3.00;;;;;;;;;;4984830;28;20027;-72
2022/09/27 08:19:10;;;;;;;17.52;3.05;;;;;;;;;;4974130;28;20468;-72
2022/09/27 08:21:36;;;;;;;20.25;2.78;;;;;;;;;;4991830;28;20050;-72
2022/09/27 08:24:02;;;;;;;10.98;2.28;;;;;;;;;;4975047;28;20487;-73
2022/09/27 08:26:28;;;;;;;13.05;2.13;;;;;;;;;;4978782;28;20496;-72
2022/09/27 08:28:54;;;;;;;10.30;2.25;;;;;;;;;;4969468;28;20081;-72
2022/09/27 08:31:22;;;;;;;18.17;2.28;;;;;;;;;;4981977;28;20093;-74
2022/09/27 08:33:51;;;;;;;11.00;1.58;;;;;;;;;;4985953;28;20132;-73
2022/09/27 08:36:19;;;;;;;14.27;1.83;;;;;;;;;;4990266;28;20018;-73
2022/09/27 08:38:48;;;;;;;9.75;1.67;;;;;;;;;;4969815;28;20057;-73
2022/09/27 08:41:33;;;;;;;12.40;1.33;;;;;;;;;;4975548;28;20571;-73
2022/09/27 08:44:02;;;;;;;5.20;1.58;;;;;;;;;;4980449;28;20062;-73
2022/09/27 08:46:52;;;;;;;7.25;1.40;;;;;;;;;;4970728;28;20106;-72
2022/09/27 08:49:22;;;;;;;6.30;1.88;;;;;;;;;;4985263;28;20030;-73
2022/09/27 08:51:51;;;;;;;12.40;1.50;;;;;;;;;;4983784;28;20163;-73
2022/09/27 08:54:21;;;;;;;10.02;1.60;;;;;;;;;;4976254;28;20124;-73
2022/09/27 08:56:48;;;;;;;8.25;2.10;;;;;;;;;;4972180;28;20055;-73
2022/09/27 08:59:20;;;;;;;12.77;2.20;;;;;;;;;;4999360;28;20631;-73
2022/09/27 09:01:50;;;;;;;12.10;1.42;;;;;;;;;;4986995;28;20504;-73
2022/09/27 09:04:48;;;;;;;8.85;1.52;;;;;;;;;;4955997;28;20400;-74
2022/09/27 09:07:14;;;;;;;10.05;1.88;;;;;;;;;;4976510;28;20453;-73
2022/09/27 09:09:59;;;;;;;12.05;1.45;;;;;;;;;;4982716;28;20026;-72
2022/09/27 09:12:47;;;;;;;12.68;1.90;;;;;;;;;;4972521;28;20057;-73
2022/09/27 09:15:16;;;;;;;13.10;1.23;;;;;;;;;;4967838;28;20568;-73
2022/09/27 09:17:42;;;;;;;8.27;1.23;;;;;;;;;;4973233;28;20088;-73
2022/09/27 09:20:11;;;;;;;9.02;1.45;;;;;;;;;;4970872;28;20484;-73
2022/09/27 09:22:37;;;;;;;12.13;1.23;;;;;;;;;;4975426;28;20098;-73
2022/09/27 09:25:06;;;;;;;9.35;1.27;;;;;;;;;;4966204;28;20519;-72
2022/09/27 09:27:32;;;;;;;6.20;1.30;;;;;;;;;;4973726;28;20500;-73
2022/09/27 09:30:15;;;;;;;3.95;1.15;;;;;;;;;;4969770;28;20022;-73
2022/09/27 09:32:59;;;;;;;5.95;0.90;;;;;;;;;;4979114;28;20174;-73
2022/09/27 09:35:28;;;;;;;5.82;1.10;;;;;;;;;;4996410;28;20034;-73
2022/09/27 09:37:56;;;;;;;5.57;1.15;;;;;;;;;;4975409;28;20511;-73
2022/09/27 09:40:34;;;;;;;8.10;1.08;;;;;;;;;;4975711;28;20019;-73
2022/09/27 09:43:03;;;;;;;8.00;1.20;;;;;;;;;;4985214;28;20492;-73
2022/09/27 09:45:38;;;;;;;10.02;1.75;;;;;;;;;;4968989;28;20150;-73
2022/09/27 09:48:04;;;;;;;10.18;1.02;;;;;;;;;;4984257;28;20034;-73
2022/09/27 09:50:35;;;;;;;5.82;1.20;;;;;;;;;;4956713;28;20102;-73
2022/09/27 09:53:19;;;;;;;16.27;1.73;;;;;;;;;;4967310;28;20484;-73
2022/09/27 09:55:50;;;;;;;20.80;1.48;;;;;;;;;;4976016;28;20038;-73
2022/09/27 09:58:32;;;;;;;13.80;1.85;;;;;;;;;;4971621;28;20034;-73
2022/09/27 10:01:00;;;;;;;13.70;1.50;;;;;;;;;;4970155;28;20038;-73
2022/09/27 10:03:26;;;;;;;16.00;1.73;;;;;;;;;;4980334;28;20094;-73
2022/09/27 10:05:52;;;;;;;11.27;1.88;;;;;;;;;;4980808;28;20518;-74
2022/09/27 10:08:20;;;;;;;14.60;1.92;;;;;;;;;;4972007;28;20042;-74
2022/09/27 10:10:46;;;;;;;10.50;1.92;;;;;;;;;;4961100;28;20287;-73
2022/09/27 10:13:16;;;;;;;18.15;2.15;;;;;;;;;;4984241;28;20528;-74
2022/09/27 10:15:42;;;;;;;13.37;1.90;;;;;;;;;;4968008;28;20527;-74
2022/09/27 10:18:13;;;;;;;58.95;4.43;;;;;;;;;;4970038;28;20503;-73
2022/09/27 10:20:43;;;;;;;45.75;3.42;;;;;;;;;;4965867;28;20050;-73
2022/09/27 10:23:18;;;;;;;19.95;2.30;;;;;;;;;;4971298;28;20034;-73
2022/09/27 10:25:53;;;;;;;9.43;1.20;;;;;;;;;;4964471;28;20084;-74
2022/09/27 10:28:54;;;;;;;8.82;2.88;;;;;;;;;;4967656;28;20145;-74
2022/09/27 10:31:21;;;;;;;4.65;1.30;;;;;;;;;;4986191;28;20042;-73
2022/09/27 10:33:55;;;;;;;5.82;1.60;;;;;;;;;;4974232;28;20034;-73
2022/09/27 10:36:28;;;;;;;11.27;1.70;;;;;;;;;;4963869;28;20103;-73
2022/09/27 10:38:59;;;;;;;6.90;1.50;;;;;;;;;;4966082;28;20034;-73
2022/09/27 10:41:31;;;;;;;7.88;1.30;;;;;;;;;;4964834;28;20042;-73
2022/09/27 10:43:57;;;;;;;5.10;1.33;;;;;;;;;;4969967;28;20018;-72
2022/09/27 10:46:27;;;;;;;11.43;2.17;;;;;;;;;;4968583;28;20142;-73
2022/09/27 10:49:12;;;;;;;8.20;2.00;;;;;;;;;;4967889;28;21492;-72
2022/09/27 10:51:38;;;;;;;7.93;1.60;;;;;;;;;;4965993;28;20046;-73
2022/09/27 10:54:05;;;;;;;8.85;1.63;;;;;;;;;;4971024;28;20070;-72
2022/09/27 10:56:32;;;;;;;6.78;1.23;;;;;;;;;;4966147;28;20105;-72
2022/09/27 10:58:59;;;;;;;13.55;2.15;;;;;;;;;;4967639;28;20041;-73
2022/09/27 11:01:25;;;;;;;8.82;1.52;;;;;;;;;;4964695;28;20019;-72
2022/09/27 11:03:57;;;;;;;8.43;2.53;;;;;;;;;;4968862;28;20050;-72
2022/09/27 11:06:23;;;;;;;11.35;2.03;;;;;;;;;;4968273;28;20042;-72
2022/09/27 11:08:50;;;;;;;8.82;1.42;;;;;;;;;;4969896;28;20031;-73
2022/09/27 11:11:23;;;;;;;7.05;1.20;;;;;;;;;;4974320;28;20038;-72
2022/09/27 11:14:03;;;;;;;5.85;1.20;;;;;;;;;;4970319;28;20836;-73
2022/09/27 11:16:42;;;;;;;8.63;1.63;;;;;;;;;;4965977;28;20059;-72
2022/09/27 11:19:27;;;;;;;5.57;1.13;;;;;;;;;;4983140;28;20031;-73
2022/09/27 11:22:19;;;;;;;6.35;1.13;;;;;;;;;;4964888;28;20031;-71
2022/09/27 11:25:01;;;;;;;6.03;1.20;;;;;;;;;;4975120;28;20200;-72
2022/09/27 11:27:27;;;;;;;6.18;1.10;;;;;;;;;;4962712;28;20039;-73
2022/09/27 11:30:10;;;;;;;5.35;1.75;;;;;;;;;;4965742;28;20023;-71
2022/09/27 11:32:40;;;;;;;5.43;1.35;;;;;;;;;;4965035;28;20497;-71
2022/09/27 11:35:19;;;;;;;4.18;1.23;;;;;;;;;;4968109;28;20085;-71
2022/09/27 11:38:03;;;;;;;7.93;1.65;;;;;;;;;;4964704;28;20352;-71
2022/09/27 11:40:49;;;;;;;4.55;1.20;;;;;;;;;;4965878;28;20467;-71
2022/09/27 11:43:15;;;;;;;7.53;1.73;;;;;;;;;;4966368;28;20161;-70
2022/09/27 11:45:41;;;;;;;2.78;1.00;;;;;;;;;;4961239;28;20491;-69
2022/09/27 11:48:33;;;;;;;5.97;2.33;;;;;;;;;;4969457;28;20057;-70
2022/09/27 11:50:59;;;;;;;6.60;1.35;;;;;;;;;;4963380;28;20051;-69
2022/09/27 11:53:32;;;;;;;6.68;1.67;;;;;;;;;;4972469;28;20590;-69
2022/09/27 11:56:07;;;;;;;6.05;1.60;;;;;;;;;;4971959;28;20023;-70
2022/09/27 11:58:36;;;;;;;4.07;1.38;;;;;;;;;;4963898;28;20022;-70
2022/09/27 12:01:18;;;;;;;4.43;1.58;;;;;;;;;;4984830;28;20069;-72
2022/09/27 12:03:59;;;;;;;7.95;1.80;;;;;;;;;;4969257;28;20061;-71
2022/09/27 12:06:31;;;;;;;15.70;2.10;;;;;;;;;;4969670;28;20039;-71
2022/09/27 12:09:01;;;;;;;9.32;1.38;;;;;;;;;;4969078;28;20038;-72
2022/09/27 12:11:35;;;;;;;8.80;1.60;;;;;;;;;;4968802;28;20118;-72
2022/09/27 12:14:08;;;;;;;10.27;2.00;;;;;;;;;;4971357;28;20043;-73
2022/09/27 12:16:36;;;;;;;9.57;2.45;;;;;;;;;;4974641;28;20026;-71
2022/09/27 12:19:02;;;;;;;12.20;2.80;;;;;;;;;;4969624;28;20034;-72
2022/09/27 12:21:31;;;;;;;13.43;2.22;;;;;;;;;;4963001;28;20034;-72
2022/09/27 12:23:58;;;;;;;9.00;3.00;;;;;;;;;;4967611;28;20487;-72
2022/09/27 12:26:30;;;;;;;15.30;1.95;;;;;;;;;;4963978;28;20030;-72
2022/09/27 12:28:57;;;;;;;7.43;1.90;;;;;;;;;;4964596;28;20030;-72
2022/09/27 12:31:24;;;;;;;10.05;1.70;;;;;;;;;;4979324;28;20484;-72
2022/09/27 12:33:53;;;;;;;8.77;1.75;;;;;;;;;;4963526;28;20023;-72
2022/09/27 12:36:21;;;;;;;8.77;1.95;;;;;;;;;;4963298;28;20026;-73
2022/09/27 12:39:10;;;;;;;12.13;1.80;;;;;;;;;;4966170;28;20058;-73
2022/09/27 12:41:38;;;;;;;6.53;1.70;;;;;;;;;;4964279;28;20023;-72
2022/09/27 12:44:04;;;;;;;8.13;1.90;;;;;;;;;;4964763;28;20030;-72
2022/09/27 12:46:41;;;;;;;7.78;2.03;;;;;;;;;;4965051;28;20085;-72
2022/09/27 12:49:08;;;;;;;10.68;2.30;;;;;;;;;;4958741;28;20035;-72
2022/09/27 12:52:00;;;;;;;8.55;2.17;;;;;;;;;;4971651;28;20555;-72
2022/09/27 12:54:30;;;;;;;8.25;1.88;;;;;;;;;;4969479;28;20035;-72
2022/09/27 12:57:17;;;;;;;7.78;2.28;;;;;;;;;;4974434;28;20047;-71
2022/09/27 12:59:46;;;;;;;10.05;1.55;;;;;;;;;;4976421;28;20031;-72
2022/09/27 13:02:31;;;;;;;7.43;2.13;;;;;;;;;;4971160;28;20045;-72
2022/09/27 13:05:12;;;;;;;11.15;1.70;;;;;;;;;;4953114;28;20039;-72
2022/09/27 13:07:38;;;;;;;;;;;;;;;;;;4971662;28;20039;-69
2022/09/27 13:10:04;;;;;;;7.70;2.25;;;;;;;;;;4970384;28;19913;-71
2022/09/27 13:12:32;;;;;;;8.98;1.80;;;;;;;;;;4967465;28;20102;-71
2022/09/27 13:15:17;;;;;;;9.13;1.40;;;;;;;;;;4968030;28;20530;-71
2022/09/27 13:17:43;;;;;;;6.32;1.45;;;;;;;;;;4954267;28;20024;-71
2022/09/27 13:20:28;;;;;;;7.57;1.35;;;;;;;;;;4973465;28;20267;-73
2022/09/27 13:22:56;;;;;;;6.75;2.28;;;;;;;;;;4971390;28;20096;-71
2022/09/27 13:25:40;;;;;;;7.65;1.73;;;;;;;;;;4958704;28;20035;-72
2022/09/27 13:28:26;;;;;;;5.53;1.30;;;;;;;;;;4969934;28;20062;-71
2022/09/27 13:30:52;;;;;;;4.45;1.50;;;;;;;;;;4968652;28;20116;-71
2022/09/27 13:33:21;;;;;;;6.80;1.63;;;;;;;;;;4973809;28;20073;-71
2022/09/27 13:36:13;;;;;;;7.47;1.45;;;;;;;;;;4988512;28;20038;-70
2022/09/27 13:38:39;;;;;;;3.25;1.10;;;;;;;;;;4980497;28;20050;-70
2022/09/27 13:41:16;;;;;;;5.03;1.58;;;;;;;;;;4976236;28;20034;-70
2022/09/27 13:43:51;;;;;;;5.25;1.80;;;;;;;;;;4966934;28;20042;-70
2022/09/27 13:46:19;;;;;;;5.10;2.10;;;;;;;;;;4980150;28;20040;-70
2022/09/27 13:48:57;;;;;;;4.70;1.60;;;;;;;;;;4976324;28;20529;-69
2022/09/27 13:51:41;;;;;;;4.78;1.40;;;;;;;;;;4967485;28;20102;-69
2022/09/27 13:54:26;;;;;;;7.35;1.30;;;;;;;;;;4974085;28;20034;-70
2022/09/27 13:56:55;;;;;;;3.53;1.55;;;;;;;;;;4975589;28;20027;-70
2022/09/27 13:59:26;;;;;;;6.68;1.98;;;;;;;;;;4972454;28;20502;-68
2022/09/27 14:01:55;;;;;;;5.47;2.10;;;;;;;;;;4971078;28;20097;-69
2022/09/27 14:04:34;;;;;;;7.25;1.50;;;;;;;;;;4977604;28;20689;-71
2022/09/27 14:07:01;;;;;;;9.30;1.90;;;;;;;;;;4979026;28;20053;-69
2022/09/27 14:09:30;;;;;;;6.32;1.70;;;;;;;;;;4970308;28;20729;-69
2022/09/27 14:11:58;;;;;;;5.47;1.50;;;;;;;;;;4974599;28;20038;-69
2022/09/27 14:14:27;;;;;;;5.70;1.52;;;;;;;;;;4977710;28;20514;-70
2022/09/27 14:16:53;;;;;;;5.13;1.58;;;;;;;;;;4977242;28;20099;-70
2022/09/27 14:19:22;;;;;;;7.00;2.35;;;;;;;;;;4989219;28;20034;-71
2022/09/27 14:21:48;;;;;;;9.70;1.60;;;;;;;;;;4979724;28;20502;-71
2022/09/27 14:24:31;;;;;;;6.85;1.88;;;;;;;;;;4970312;28;20110;-71
2022/09/27 14:27:09;;;;;;;9.15;1.90;;;;;;;;;;4977744;28;20159;-71
2022/09/27 14:29:39;;;;;;;10.85;2.00;;;;;;;;;;4984251;28;20038;-71
2022/09/27 14:32:08;;;;;;;7.22;2.08;;;;;;;;;;4979083;28;20046;-71
2022/09/27 14:34:34;;;;;;;10.73;2.15;;;;;;;;;;4990444;28;20404;-70
2022/09/27 14:39:45;;;;;;;6.57;1.42;;;;;;;;;;4951509;29;20517;-71
2022/09/27 14:42:20;;;;;;;7.50;1.63;;;;;;;;;;4977995;28;20204;-71
2022/09/27 14:44:46;;;;;;;9.70;2.10;;;;;;;;;;4974260;28;20027;-71
2022/09/27 14:47:21;;;;;;;9.73;3.20;;;;;;;;;;4973817;28;20065;-72
2022/09/27 14:49:54;;;;;;;9.02;2.80;;;;;;;;;;4975206;28;20047;-72
2022/09/27 14:52:26;;;;;;;10.07;2.40;;;;;;;;;;4970221;28;20035;-70
2022/09/27 14:54:57;;;;;;;4.18;2.00;;;;;;;;;;4969774;28;20031;-70
2022/09/27 14:57:23;;;;;;;6.53;1.70;;;;;;;;;;4969868;28;20027;-70
2022/09/27 14:59:49;;;;;;;9.70;2.20;;;;;;;;;;4992379;28;20034;-70
2022/09/27 15:02:19;;;;;;;8.32;2.33;;;;;;;;;;4986805;28;20046;-70